Time;durP1;ratioP1;P1;durP2;ratioP2;P2;SDS_P1;SDS_P2;PMS_P1;PMS_P2;Temp;Humidity;BMP_temperature;BMP_pressure;BME280_temperature;BME280_humidity;BME280_pressure;Samples;Min_cycle;Max_cycle;Signal;HPM_P1;HPM_P2
2022/11/09 00:00:31;;;;;;;;;5.25;3.00;;;;;13.38;83.32;99974.16;6276214;22;47222;-90
2022/11/09 00:02:57;;;;;;;;;3.50;3.25;;;;;12.41;83.47;99828.53;6278381;22;45295;-91
2022/11/09 00:05:22;;;;;;;;;3.50;3.50;;;;;13.38;83.45;99993.56;6284895;22;45427;-91
2022/11/09 00:07:48;;;;;;;;;2.75;2.75;;;;;12.41;83.28;99817.06;6255034;22;45672;-91
2022/11/09 00:10:13;;;;;;;;;3.50;3.00;;;;;12.84;83.83;99902.84;6282826;22;46307;-91
2022/11/09 00:12:39;;;;;;;;;2.00;2.00;;;;;11.45;83.61;99672.44;6250176;22;45357;-91
2022/11/09 00:15:05;;;;;;;;;3.00;3.00;;;;;13.31;83.86;99979.63;6249544;22;45434;-91
2022/11/09 00:17:36;;;;;;;;;2.00;2.00;;;;;13.27;83.58;99986.03;6253660;22;45291;-91
2022/11/09 00:20:01;;;;;;;;;2.00;2.00;;;;;13.40;83.41;100001.47;6281536;22;45428;-90
2022/11/09 00:22:27;;;;;;;;;3.50;2.75;;;;;12.44;83.85;99844.31;6277833;22;45297;-90
2022/11/09 00:24:52;;;;;;;;;2.75;2.75;;;;;12.68;83.68;99883.16;6280683;22;45191;-90
2022/11/09 00:27:18;;;;;;;;;5.25;3.00;;;;;13.44;83.93;100000.44;6286698;22;45256;-89
2022/11/09 00:29:46;;;;;;;;;3.00;3.00;;;;;13.15;84.03;99957.34;6256626;22;48271;-90
2022/11/09 00:32:14;;;;;;;;;3.25;2.00;;;;;12.36;84.21;99792.53;6248083;22;45310;-91
2022/11/09 00:34:40;;;;;;;;;2.25;2.25;;;;;13.05;83.99;99876.38;6273607;22;45525;-91
2022/11/09 00:37:05;;;;;;;;;1.75;1.75;;;;;12.68;84.28;99830.13;6259042;22;45139;-90
2022/11/09 00:39:31;;;;;;;;;2.00;2.00;;;;;13.03;84.52;99891.50;6285102;22;47208;-91
2022/11/09 00:41:56;;;;;;;;;3.25;2.00;;;;;13.02;84.64;99897.72;6282568;22;45393;-91
2022/11/09 00:44:22;;;;;;;;;2.75;2.75;;;;;12.27;84.30;99776.09;6252100;22;45360;-91
2022/11/09 00:46:48;;;;;;;;;3.25;2.00;;;;;13.25;84.84;99948.03;6277055;22;45414;-90
2022/11/09 00:49:14;;;;;;;;;4.00;2.00;;;;;13.26;85.08;99959.53;6276205;22;45395;-91
2022/11/09 00:51:40;;;;;;;;;3.00;2.50;;;;;12.23;84.90;99785.06;6276950;22;45291;-90
2022/11/09 00:54:07;;;;;;;;;1.75;1.50;;;;;13.20;85.00;99938.56;6259468;22;45486;-90
2022/11/09 00:56:32;;;;;;;;;3.00;1.75;;;;;12.90;84.93;99891.97;6255941;22;45259;-90
2022/11/09 00:58:58;;;;;;;;;5.25;3.00;;;;;12.34;84.79;99804.97;6279148;22;45416;-91
2022/11/09 01:01:23;;;;;;;;;1.75;1.75;;;;;13.14;85.36;99940.53;6278983;22;45232;-92
2022/11/09 01:03:49;;;;;;;;;1.50;1.50;;;;;12.85;85.32;99901.94;6248541;22;45250;-90
2022/11/09 01:06:16;;;;;;;;;2.00;1.50;;;;;13.12;85.49;99960.09;6259182;22;45313;-90
2022/11/09 01:08:43;;;;;;;;;2.00;2.00;;;;;12.67;85.33;99897.34;6269184;22;48162;-90
2022/11/09 01:11:09;;;;;;;;;2.25;1.50;;;;;12.07;85.32;99789.22;6273322;22;45354;-91
2022/11/09 01:13:36;;;;;;;;;1.00;1.00;;;;;13.12;85.01;99984.00;6248751;22;45324;-92
2022/11/09 01:16:10;;;;;;;;;2.00;2.00;;;;;13.11;85.25;99972.50;6246040;22;45314;-91
2022/11/09 01:18:36;;;;;;;;;1.00;0.00;;;;;11.83;85.11;99765.41;6249706;22;45572;-89
2022/11/09 01:21:04;;;;;;;;;1.75;1.75;;;;;11.66;85.30;99752.81;6243338;22;45324;-87
2022/11/09 01:23:29;;;;;;;;;1.50;1.50;;;;;12.11;84.70;99822.63;6268432;22;45210;-88
2022/11/09 01:25:59;;;;;;;;;3.00;1.75;;;;;12.07;84.73;99802.47;6242661;22;45272;-87
2022/11/09 01:28:25;;;;;;;;;4.00;3.00;;;;;12.65;85.23;99915.09;6245003;22;47871;-89
2022/11/09 01:30:53;;;;;;;;;0.00;0.00;;;;;11.05;85.10;99650.09;6252510;22;45318;-89
2022/11/09 01:33:19;;;;;;;;;3.00;2.00;;;;;13.02;85.35;99993.22;6254266;22;45430;-89
2022/11/09 01:35:44;;;;;;;;;2.00;2.00;;;;;11.42;85.20;99735.16;6246323;22;45233;-89
2022/11/09 01:38:10;;;;;;;;;2.00;2.00;;;;;12.14;84.90;99878.13;6249757;22;45162;-89
2022/11/09 01:40:38;;;;;;;;;2.25;1.00;;;;;11.78;84.93;99820.31;6276296;22;45214;-89
2022/11/09 01:43:26;;;;;;;;;3.00;1.00;;;;;12.08;85.20;99883.66;6250146;22;45212;-89
2022/11/09 01:46:12;;;;;;;;;2.75;1.50;;;;;11.41;85.57;99786.38;6246023;22;45317;-89
2022/11/09 01:48:43;;;;;;;;;2.25;1.00;;;;;12.20;85.47;99907.06;6243471;22;45806;-90
2022/11/09 01:51:35;;;;;;;;;3.00;3.00;;;;;12.76;85.31;100021.63;6243736;22;45362;-89
2022/11/09 01:54:11;;;;;;;;;0.00;0.00;;;;;12.21;85.13;99937.94;6241990;22;45234;-88
2022/11/09 01:56:38;;;;;;;;;1.25;1.25;;;;;11.59;85.17;99854.53;6269399;22;45402;-89
2022/11/09 01:59:09;;;;;;;;;3.75;1.75;;;;;11.65;85.47;99874.63;6244658;22;47742;-88
2022/11/09 02:01:52;;;;;;;;;2.00;2.00;;;;;12.64;85.58;100045.94;6250655;22;45201;-88
2022/11/09 02:04:39;;;;;;;;;2.25;2.25;;;;;12.59;85.30;100043.47;6246901;22;45252;-88
2022/11/09 02:07:05;;;;;;;;;2.75;2.00;;;;;12.00;85.48;99950.16;6249982;22;45294;-86
2022/11/09 02:09:38;;;;;;;;;2.00;1.00;;;;;11.15;85.28;99819.91;6268493;22;45628;-88
2022/11/09 02:12:06;;;;;;;;;2.00;1.00;;;;;10.96;85.50;99779.97;6281414;22;45317;-88
2022/11/09 02:14:34;;;;;;;;;3.00;2.00;;;;;11.51;85.29;99883.91;6250656;22;45367;-87
2022/11/09 02:17:00;;;;;;;;;2.00;1.50;;;;;12.44;85.41;100047.53;6275844;22;45214;-88
2022/11/09 02:19:25;;;;;;;;;1.50;1.50;;;;;11.23;85.16;99831.06;6276761;22;45369;-86
2022/11/09 02:21:51;;;;;;;;;1.50;1.00;;;;;11.49;85.47;99890.16;6276216;22;45312;-88
2022/11/09 02:24:17;;;;;;;;;2.00;1.00;;;;;12.15;85.30;99991.13;6274126;22;45372;-87
2022/11/09 02:26:52;;;;;;;;;2.75;0.75;;;;;12.32;85.20;100024.13;6275957;22;45403;-87
2022/11/09 02:29:30;;;;;;;;;0.50;0.25;;;;;11.96;85.70;99964.44;6281068;22;46850;-87
2022/11/09 02:32:02;;;;;;;;;0.00;0.00;;;;;12.27;85.27;100033.09;6280138;22;45261;-88
2022/11/09 02:34:28;;;;;;;;;1.00;0.00;;;;;12.25;85.33;100029.66;6249151;22;45297;-87
2022/11/09 02:36:53;;;;;;;;;2.25;2.25;;;;;11.85;85.38;99978.00;6277798;22;45181;-89
2022/11/09 02:39:25;;;;;;;;;2.00;0.75;;;;;12.17;85.48;100026.38;6254003;22;47246;-87
2022/11/09 02:45:12;;;;;;;;;2.00;1.00;;;;;11.74;85.16;99980.19;6278067;22;45317;-88
2022/11/09 02:47:46;;;;;;;;;3.50;1.00;;;;;12.08;85.33;100037.31;6275598;22;45551;-88
2022/11/09 02:50:11;;;;;;;;;1.00;1.00;;;;;11.40;85.13;99923.09;6250212;22;47190;-90
2022/11/09 02:52:37;;;;;;;;;0.00;0.00;;;;;11.70;85.09;99981.19;6277120;22;45416;-89
2022/11/09 02:55:02;;;;;;;;;1.00;1.00;;;;;11.67;85.66;99995.38;6283841;22;45566;-89
2022/11/09 02:57:28;;;;;;;;;0.00;0.00;;;;;10.96;85.35;99881.34;6280943;22;45371;-89
2022/11/09 02:59:53;;;;;;;;;0.00;0.00;;;;;10.79;85.42;99846.66;6281736;22;45331;-90
2022/11/09 03:02:19;;;;;;;;;3.00;1.50;;;;;11.58;85.27;99987.75;6250302;22;45336;-89
2022/11/09 03:04:44;;;;;;;;;0.50;0.50;;;;;11.53;85.32;99993.22;6275198;22;45979;-89
2022/11/09 03:07:09;;;;;;;;;1.25;1.00;;;;;11.16;84.81;99944.16;6249146;22;45444;-88
2022/11/09 03:09:35;;;;;;;;;1.00;0.00;;;;;11.27;85.13;99967.63;6251213;22;48403;-88
2022/11/09 03:12:27;;;;;;;;;0.00;0.00;;;;;10.83;85.31;99896.72;6280199;22;45241;-88
2022/11/09 03:14:46;;;;;;;;;0.00;0.00;;;;;11.41;84.97;99998.06;6276214;22;45472;-88
2022/11/09 03:17:12;;;;;;;;;0.50;0.25;;;;;10.34;84.95;99824.28;6279973;22;45508;-90
2022/11/09 03:19:38;;;;;;;;;1.00;0.00;;;;;11.77;84.97;100059.50;6285799;22;47020;-90
2022/11/09 03:22:03;;;;;;;;;0.75;0.75;;;;;11.39;85.06;99990.16;6259264;22;45179;-90
2022/11/09 03:24:29;;;;;;;;;2.25;1.00;;;;;10.86;85.20;99905.50;6257830;22;45280;-91
2022/11/09 03:26:54;;;;;;;;;0.00;0.00;;;;;11.07;85.69;99946.22;6251017;22;45234;-90
2022/11/09 03:29:19;;;;;;;;;0.00;0.00;;;;;10.99;85.05;99925.31;6251503;22;47034;-90
2022/11/09 03:31:45;;;;;;;;;0.00;0.00;;;;;10.97;85.19;99929.78;6254506;22;45149;-91
2022/11/09 03:34:10;;;;;;;;;0.00;0.00;;;;;10.95;85.25;99937.78;6254384;22;45149;-90
2022/11/09 03:36:36;;;;;;;;;0.00;0.00;;;;;11.30;84.71;100009.00;6254153;22;45201;-90
2022/11/09 03:39:02;;;;;;;;;0.00;0.00;;;;;11.01;85.16;99957.88;6282619;22;45293;-91
2022/11/09 03:41:27;;;;;;;;;0.00;0.00;;;;;11.32;85.24;100009.78;6284711;22;45408;-91
2022/11/09 03:43:52;;;;;;;;;0.50;0.50;;;;;10.07;84.81;99810.97;6257017;22;44736;-91
2022/11/09 03:46:19;;;;;;;;;0.00;0.00;;;;;11.64;85.01;100082.00;6254007;22;45234;-90
2022/11/09 03:48:45;;;;;;;;;0.25;0.25;;;;;11.24;84.83;100027.69;6277154;22;47061;-91
2022/11/09 03:51:10;;;;;;;;;0.00;0.00;;;;;11.33;85.04;100032.69;6282024;22;45226;-91
2022/11/09 03:53:36;;;;;;;;;0.00;0.00;;;;;11.11;85.04;100006.91;6282481;22;45342;-90
2022/11/09 03:56:02;;;;;;;;;0.00;0.00;;;;;9.90;85.06;99794.75;6251181;22;45368;-90
2022/11/09 03:58:27;;;;;;;;;0.00;0.00;;;;;10.03;84.42;99821.66;6251937;22;47101;-90
2022/11/09 04:00:53;;;;;;;;;0.00;0.00;;;;;11.50;84.78;100083.28;6277596;22;45610;-89
2022/11/09 04:03:18;;;;;;;;;1.00;0.00;;;;;11.47;84.73;100095.75;6277590;22;45227;-91
2022/11/09 04:05:44;;;;;;;;;1.00;0.00;;;;;10.17;85.18;99874.06;6282330;22;45131;-89
2022/11/09 04:08:10;;;;;;;;;0.50;0.00;;;;;9.99;85.14;99839.38;6253960;22;47348;-90
2022/11/09 04:10:35;;;;;;;;;0.25;0.25;;;;;10.63;85.11;99952.00;6286234;22;44612;-90
2022/11/09 04:13:01;;;;;;;;;0.00;0.00;;;;;11.40;84.89;100094.22;6252939;22;45183;-90
2022/11/09 04:15:26;;;;;;;;;1.00;0.00;;;;;10.34;84.98;99918.50;6255342;22;45179;-90
2022/11/09 04:18:00;;;;;;;;;1.00;0.00;;;;;9.75;84.78;99815.41;6282335;22;45219;-90
2022/11/09 04:20:27;;;;;;;;;0.00;0.00;;;;;11.34;85.06;100108.50;6255337;22;45312;-90
2022/11/09 04:22:57;;;;;;;;;0.00;0.00;;;;;10.23;84.95;99910.84;6278667;22;45410;-90
2022/11/09 04:25:25;;;;;;;;;0.00;0.00;;;;;11.28;84.91;100104.28;6276276;22;45168;-91
2022/11/09 04:27:56;;;;;;;;;0.00;0.00;;;;;10.88;85.42;100035.84;6250762;22;48260;-90
2022/11/09 04:30:22;;;;;;;;;0.00;0.00;;;;;10.95;85.01;100053.25;6253618;22;45353;-90
2022/11/09 04:32:48;;;;;;;;;0.00;0.00;;;;;10.75;84.92;100030.03;6282512;22;45188;-90
2022/11/09 04:35:13;;;;;;;;;0.00;0.00;;;;;9.34;85.18;99798.09;6277723;22;45169;-90
2022/11/09 04:37:39;;;;;;;;;0.00;0.00;;;;;11.19;85.21;100112.50;6279193;22;45712;-90
2022/11/09 04:40:06;;;;;;;;;0.00;0.00;;;;;11.16;85.38;100126.66;6284429;22;45227;-90
2022/11/09 04:42:32;;;;;;;;;1.00;0.50;;;;;10.83;85.11;100065.06;6257238;22;45119;-91
2022/11/09 04:44:58;;;;;;;;;1.50;0.75;;;;;9.71;84.94;99881.50;6256013;22;45436;-91
2022/11/09 04:47:24;;;;;;;;;0.00;0.00;;;;;11.13;85.44;100117.94;6287064;22;45531;-90
2022/11/09 04:49:50;;;;;;;;;2.00;0.00;;;;;11.12;85.35;100129.44;6251506;22;45972;-91
2022/11/09 04:52:15;;;;;;;;;0.00;0.00;;;;;9.55;85.13;99887.22;6276700;22;45391;-90
2022/11/09 04:54:40;;;;;;;;;0.00;0.00;;;;;10.98;85.37;100103.41;6254334;22;45155;-90
2022/11/09 04:57:06;;;;;;;;;0.50;0.00;;;;;10.69;85.33;100083.97;6249394;22;47256;-90
2022/11/09 04:59:31;;;;;;;;;0.00;0.00;;;;;10.12;84.92;99974.53;6251025;22;45418;-90
2022/11/09 05:02:00;;;;;;;;;1.00;0.00;;;;;11.04;85.34;100132.31;6250574;22;45770;-90
2022/11/09 05:04:25;;;;;;;;;0.00;0.00;;;;;11.02;85.71;100139.41;6282601;22;45086;-90
2022/11/09 05:06:51;;;;;;;;;0.25;0.00;;;;;10.36;85.58;100017.94;6279115;22;45974;-89
2022/11/09 05:09:16;;;;;;;;;0.00;0.00;;;;;9.86;85.72;99943.56;6282238;22;45303;-90
2022/11/09 05:11:42;;;;;;;;;0.00;0.00;;;;;11.00;85.84;100147.38;6253303;22;45199;-89
2022/11/09 05:14:07;;;;;;;;;2.00;0.75;;;;;10.34;85.42;100034.72;6254026;22;45605;-89
2022/11/09 05:16:33;;;;;;;;;0.00;0.00;;;;;10.98;85.33;100121.91;6257398;22;45617;-90
2022/11/09 05:18:58;;;;;;;;;0.25;0.25;;;;;10.37;85.55;100027.59;6255314;22;45362;-91
2022/11/09 05:21:24;;;;;;;;;0.50;0.50;;;;;10.16;86.12;99996.44;6253114;22;45380;-89
2022/11/09 05:23:58;;;;;;;;;0.00;0.00;;;;;10.66;85.82;100082.25;6251290;22;45381;-91
2022/11/09 05:26:30;;;;;;;;;2.75;1.00;;;;;10.34;85.57;100040.88;6253590;22;46983;-92
2022/11/09 05:28:57;;;;;;;;;0.25;0.00;;;;;10.61;85.83;100084.19;6251628;22;45280;-91
2022/11/09 05:31:25;;;;;;;;;1.00;1.00;;;;;10.98;85.72;100135.13;6255225;22;45379;-90
2022/11/09 05:33:52;;;;;;;;;0.00;0.00;;;;;10.59;85.27;100077.19;6250210;22;45391;-89
2022/11/09 05:36:21;;;;;;;;;1.00;0.00;;;;;9.89;85.37;99959.34;6278820;22;45356;-89
2022/11/09 05:38:47;;;;;;;;;0.00;0.00;;;;;10.76;85.63;100109.28;6256544;22;44693;-91
2022/11/09 05:41:13;;;;;;;;;1.00;1.00;;;;;10.97;85.75;100147.47;6283898;22;45486;-91
2022/11/09 05:43:39;;;;;;;;;0.50;0.50;;;;;10.97;85.51;100146.63;6289576;22;45224;-88
2022/11/09 05:46:05;;;;;;;;;0.50;0.50;;;;;10.16;85.68;100014.91;6281488;22;47577;-91
2022/11/09 05:48:31;;;;;;;;;0.50;0.00;;;;;9.56;85.60;99901.25;6278617;22;45166;-90
2022/11/09 05:51:00;;;;;;;;;0.00;0.00;;;;;10.29;85.55;100027.78;6250848;22;45163;-91
2022/11/09 05:53:26;;;;;;;;;0.25;0.25;;;;;9.51;85.87;99895.25;6277084;22;45261;-89
2022/11/09 05:55:52;;;;;;;;;2.25;1.00;;;;;10.66;85.89;100097.25;6279416;22;46054;-89
2022/11/09 05:58:17;;;;;;;;;1.00;1.00;;;;;10.88;86.22;100134.50;6250762;22;45319;-90
2022/11/09 06:00:42;;;;;;;;;0.50;0.50;;;;;9.84;86.20;99971.75;6280384;22;45503;-89
2022/11/09 06:03:09;;;;;;;;;1.75;1.00;;;;;10.88;86.06;100142.44;6280201;22;45271;-90
2022/11/09 06:05:37;;;;;;;;;1.50;1.50;;;;;10.98;86.16;100174.81;6280300;22;46256;-91
2022/11/09 06:08:05;;;;;;;;;1.50;1.50;;;;;9.85;85.99;99966.44;6288074;22;44787;-90
2022/11/09 06:10:31;;;;;;;;;1.25;1.00;;;;;10.22;86.03;100034.13;6263851;22;45235;-91
2022/11/09 06:12:56;;;;;;;;;3.00;1.75;;;;;9.94;86.16;99973.25;6280384;22;45292;-89
2022/11/09 06:15:22;;;;;;;;;2.25;1.00;;;;;10.63;86.19;100094.69;6278900;22;45187;-89
2022/11/09 06:17:56;;;;;;;;;0.75;0.75;;;;;10.68;86.63;100115.72;6248368;22;45937;-91
2022/11/09 06:20:26;;;;;;;;;1.25;1.25;;;;;10.07;86.41;100006.34;6279125;22;45225;-90
2022/11/09 06:22:56;;;;;;;;;3.75;1.75;;;;;10.38;86.26;100062.78;6254563;22;45459;-90
2022/11/09 06:25:22;;;;;;;;;3.25;2.25;;;;;10.96;86.92;100164.28;6282764;22;48048;-90
2022/11/09 06:27:48;;;;;;;;;1.00;1.00;;;;;10.53;86.65;100098.50;6286215;22;45265;-90
2022/11/09 06:30:16;;;;;;;;;1.50;0.50;;;;;10.64;86.97;100136.06;6253865;22;45201;-90
2022/11/09 06:32:41;;;;;;;;;1.50;1.25;;;;;9.73;86.48;99977.31;6256116;22;45421;-91
2022/11/09 06:35:07;;;;;;;;;1.75;1.00;;;;;9.71;86.45;99987.06;6251587;22;47095;-91
2022/11/09 06:37:33;;;;;;;;;2.50;2.50;;;;;10.10;86.67;100042.38;6285174;22;45351;-90
2022/11/09 06:39:58;;;;;;;;;2.00;2.00;;;;;9.51;86.61;99958.56;6287343;22;45392;-90
2022/11/09 06:42:24;;;;;;;;;4.75;2.25;;;;;10.24;86.76;100065.78;6281903;22;45188;-91
2022/11/09 06:44:49;;;;;;;;;1.50;1.00;;;;;10.39;86.73;100099.72;6280408;22;46641;-91
2022/11/09 06:47:15;;;;;;;;;3.75;3.00;;;;;10.95;86.99;100206.63;6251393;22;45265;-91
2022/11/09 06:49:40;;;;;;;;;2.50;2.50;;;;;10.95;87.04;100214.56;6251633;22;45326;-91
2022/11/09 06:52:06;;;;;;;;;3.00;2.00;;;;;10.30;87.06;100092.03;6250825;22;45326;-91
2022/11/09 06:54:32;;;;;;;;;1.00;1.00;;;;;10.34;86.86;100103.41;6276801;22;47670;-91
2022/11/09 06:56:58;;;;;;;;;2.00;2.00;;;;;9.17;86.93;99901.38;6281313;22;45382;-91
2022/11/09 06:59:23;;;;;;;;;2.75;2.75;;;;;10.61;87.07;100141.44;6252001;22;45282;-90
2022/11/09 07:01:57;;;;;;;;;2.00;2.00;;;;;10.61;87.19;100139.69;6276048;22;45490;-92
2022/11/09 07:04:23;;;;;;;;;1.50;1.50;;;;;10.05;87.41;100068.03;6253623;22;47093;-91
2022/11/09 07:06:48;;;;;;;;;3.00;2.00;;;;;10.32;86.86;100100.75;6286451;22;45368;-91
2022/11/09 07:09:13;;;;;;;;;5.50;4.00;;;;;10.45;86.76;100133.91;6282028;22;45277;-91
2022/11/09 07:11:39;;;;;;;;;1.25;1.00;;;;;10.01;87.26;100054.03;6250358;22;45273;-89
2022/11/09 07:14:04;;;;;;;;;2.75;2.75;;;;;10.66;86.97;100166.84;6276093;22;45492;-89
2022/11/09 07:16:30;;;;;;;;;1.75;1.00;;;;;10.85;87.08;100200.69;6275320;22;45315;-90
2022/11/09 07:18:58;;;;;;;;;2.00;2.00;;;;;10.61;87.50;100165.22;6276307;22;45333;-89
2022/11/09 07:21:24;;;;;;;;;2.75;2.75;;;;;11.14;87.76;100254.56;6278521;22;45197;-88
2022/11/09 07:23:49;;;;;;;;;1.00;1.00;;;;;11.20;87.42;100255.28;6276736;22;46121;-89
2022/11/09 07:26:17;;;;;;;;;2.00;2.00;;;;;10.32;87.15;100088.44;6279615;22;45168;-89
2022/11/09 07:28:42;;;;;;;;;2.00;2.00;;;;;9.26;86.73;99906.41;6281931;22;45442;-89
2022/11/09 07:31:08;;;;;;;;;2.50;2.00;;;;;11.40;87.34;100261.78;6287847;22;44902;-90
2022/11/09 07:33:34;;;;;;;;;3.75;3.75;;;;;9.40;86.71;99914.84;6286985;22;45629;-89
2022/11/09 07:36:01;;;;;;;;;3.50;2.00;;;;;11.15;87.05;100206.91;6283558;22;45311;-89
2022/11/09 07:38:31;;;;;;;;;3.00;3.00;;;;;10.74;86.94;100126.97;6283063;22;45395;-89
2022/11/09 07:41:14;;;;;;;;;3.25;3.25;;;;;10.91;87.13;100150.28;6278003;22;45495;-90
2022/11/09 07:43:40;;;;;;;;;2.75;2.75;;;;;11.31;87.07;100194.13;6254874;22;46645;-89
2022/11/09 07:46:05;;;;;;;;;5.50;3.50;;;;;10.66;87.48;100078.75;6251364;22;45208;-89
2022/11/09 07:48:31;;;;;;;;;2.25;2.00;;;;;10.72;87.30;100081.22;6278994;22;45197;-90
2022/11/09 07:50:59;;;;;;;;;6.00;3.75;;;;;11.56;86.93;100196.91;6255139;22;45345;-91
2022/11/09 07:53:26;;;;;;;;;3.50;3.50;;;;;11.71;86.88;100208.81;6279280;22;46430;-90
2022/11/09 07:56:02;;;;;;;;;5.25;3.75;;;;;11.68;87.17;100202.75;6274629;22;45364;-91
2022/11/09 07:58:28;;;;;;;;;2.25;2.25;;;;;10.64;86.74;100027.69;6277417;22;45325;-90
2022/11/09 08:00:54;;;;;;;;;1.75;1.00;;;;;11.58;86.36;100173.03;6283416;22;44825;-90
2022/11/09 08:03:20;;;;;;;;;3.25;3.25;;;;;11.85;86.43;100226.91;6255113;22;46516;-89
2022/11/09 08:05:47;;;;;;;;;4.00;2.75;;;;;12.36;86.88;100266.88;6282604;22;45234;-91
2022/11/09 08:08:16;;;;;;;;;4.00;4.00;;;;;10.95;85.82;100010.94;6285373;22;45235;-91
2022/11/09 08:10:43;;;;;;;;;2.00;2.00;;;;;12.65;86.08;100292.47;6281059;22;45407;-91
2022/11/09 08:13:13;;;;;;;;;2.25;2.00;;;;;12.18;85.41;100179.13;6285781;22;45185;-92
2022/11/09 08:15:39;;;;;;;;;3.00;3.00;;;;;12.77;85.58;100252.25;6280060;22;45407;-91
2022/11/09 08:18:12;;;;;;;;;2.50;2.00;;;;;12.12;85.50;100131.66;6272699;22;45353;-91
2022/11/09 08:20:39;;;;;;;;;3.25;1.75;;;;;11.81;85.72;100061.13;6251115;22;45424;-91
2022/11/09 08:23:05;;;;;;;;;5.25;4.25;;;;;12.92;85.38;100231.41;6277135;22;45713;-91
2022/11/09 08:25:34;;;;;;;;;3.75;2.50;;;;;12.76;85.66;100189.53;6281156;22;45264;-90
2022/11/09 08:28:00;;;;;;;;;1.50;1.50;;;;;11.41;85.59;99956.56;6282658;22;45204;-91
2022/11/09 08:30:26;;;;;;;;;2.00;2.00;;;;;13.45;85.52;100296.81;6261922;22;45191;-91
2022/11/09 08:32:52;;;;;;;;;1.75;1.75;;;;;12.07;85.11;100056.75;6290523;22;46307;-92
2022/11/09 08:35:20;;;;;;;;;3.50;3.50;;;;;13.36;85.30;100262.63;6259192;22;45347;-92
2022/11/09 08:37:51;;;;;;;;;3.25;3.00;;;;;13.62;84.92;100310.34;6258928;22;44823;-91
2022/11/09 08:40:24;;;;;;;;;5.75;3.25;;;;;12.20;84.51;100042.16;6257330;22;45208;-91
2022/11/09 08:42:51;;;;;;;;;5.50;3.00;;;;;12.40;84.70;100075.06;6254298;22;47868;-93
2022/11/09 08:45:17;;;;;;;;;2.00;2.00;;;;;13.18;84.71;100193.38;6253036;22;45897;-89
2022/11/09 08:47:46;;;;;;;;;4.25;3.00;;;;;13.91;84.72;100313.69;6277360;22;45297;-89
2022/11/09 08:50:13;;;;;;;;;2.00;2.00;;;;;13.97;84.76;100318.78;6286156;22;45489;-89
2022/11/09 08:52:39;;;;;;;;;2.75;1.50;;;;;13.32;84.40;100192.84;6286516;22;45813;-89
2022/11/09 08:55:06;;;;;;;;;5.00;4.00;;;;;14.15;83.85;100321.63;6259516;22;45320;-90
2022/11/09 08:57:32;;;;;;;;;2.00;2.00;;;;;13.62;83.81;100241.31;6287718;22;45211;-90
2022/11/09 09:00:02;;;;;;;;;2.00;2.00;;;;;13.97;83.91;100268.31;6294778;22;45371;-91
2022/11/09 09:02:34;;;;;;;;;5.25;3.00;;;;;13.30;83.43;100158.41;6269745;22;46726;-90
2022/11/09 09:15:48;;;;;;;;;3.25;2.25;;;;;14.98;82.79;100350.25;6179705;23;45484;-91
2022/11/09 09:18:14;;;;;;;;;4.00;4.00;;;;;14.00;82.94;100179.66;6163348;23;44717;-92
2022/11/09 09:20:45;;;;;;;;;3.00;2.00;;;;;14.81;82.74;100297.75;6163652;23;45291;-93
2022/11/09 09:23:13;;;;;;;;;2.75;2.75;;;;;15.19;82.50;100352.94;6188385;23;45485;-81
2022/11/09 09:26:00;;;;;;;;;3.25;3.25;;;;;14.17;82.21;100168.31;6185643;23;47064;-93
2022/11/09 09:28:36;;;;;;;;;;;;;;;;;;;;;
2022/11/09 09:31:06;;;;;;;;;2.00;2.00;;;;;14.98;82.71;100291.69;6189923;23;67499;-92
2022/11/09 09:33:47;;;;;;;;;2.50;2.50;;;;;14.33;82.23;100177.38;6196213;23;45408;-91
2022/11/09 09:36:17;;;;;;;;;1.00;1.00;;;;;13.95;82.19;100124.03;6176534;23;47018;-92
2022/11/09 09:38:42;;;;;;;;;2.00;2.00;;;;;15.26;82.52;100330.47;6197169;23;45521;-92
2022/11/09 09:41:32;;;;;;;;;1.00;1.00;;;;;13.95;82.38;100117.84;6193521;23;45417;-92
2022/11/09 09:44:05;;;;;;;;;2.00;2.00;;;;;14.44;82.01;100199.97;6207015;22;44882;-92
2022/11/09 09:46:42;;;;;;;;;1.75;1.75;;;;;14.55;82.36;100219.88;6262303;22;47588;-91
2022/11/09 09:49:48;;;;;;;;;1.50;1.50;;;;;14.00;82.25;100121.19;6253860;22;45207;-91
2022/11/09 09:52:17;;;;;;;;;0.75;0.75;;;;;15.55;82.13;100386.91;6219772;22;45430;-91
2022/11/09 09:54:56;;;;;;;;;2.50;2.00;;;;;14.01;81.27;100123.78;6219793;22;45039;-90
2022/11/09 09:57:25;;;;;;;;;1.50;1.50;;;;;14.77;81.75;100239.41;6217984;22;45278;-91
2022/11/09 09:59:53;;;;;;;;;1.00;1.00;;;;;14.70;81.89;100237.03;6216939;22;45464;-90
2022/11/09 10:02:23;;;;;;;;;1.75;1.75;;;;;15.69;81.39;100384.50;6190902;22;45340;-92
2022/11/09 10:04:51;;;;;;;;;4.00;1.25;;;;;14.51;81.21;100174.88;6221920;22;45446;-90
2022/11/09 10:08:08;;;;;;;;;1.00;1.00;;;;;14.67;81.46;100186.63;6176676;22;47466;-90
2022/11/09 10:10:49;;;;;;;;;1.00;1.00;;;;;15.69;80.50;100341.88;6101631;23;45241;-88
2022/11/09 10:13:42;;;;;;;;;1.25;1.00;;;;;16.10;80.60;100392.44;6101380;23;44743;-91
2022/11/09 10:16:20;;;;;;;;;2.25;2.25;;;;;15.63;80.01;100294.19;6105574;23;45239;-92
2022/11/09 10:19:06;;;;;;;;;3.25;2.50;;;;;16.44;79.92;100400.69;6103164;23;48251;-88
2022/11/09 10:21:43;;;;;;;;;3.25;1.75;;;;;15.33;79.33;100190.78;6120407;23;45547;-90
2022/11/09 10:24:31;;;;;;;;;0.75;0.75;;;;;15.57;79.22;100193.28;6123205;23;45332;-90
2022/11/09 10:41:19;;;;;;;;;1.00;0.75;;;;;16.66;77.21;100280.47;6061004;23;45510;-90
2022/11/09 10:44:18;;;;;;;;;1.50;1.25;;;;;16.35;77.16;100257.97;6131864;23;45888;-89
2022/11/09 10:47:41;;;;;;;;;3.25;2.25;;;;;17.19;77.63;100413.09;6135108;23;45589;-91
2022/11/09 10:51:00;;;;;;;;;;;;;;;;;;;;;
2022/11/09 11:31:20;;;;;;;;;0.00;0.00;;;;;17.50;76.40;100411.50;5785952;24;45422;-91
2022/11/09 11:33:46;;;;;;;;;0.50;0.50;;;;;16.56;76.28;100261.38;5773218;24;45506;-93
2022/11/09 11:36:40;;;;;;;;;1.25;0.75;;;;;17.68;76.49;100455.13;5793715;24;45344;-92
2022/11/09 11:39:42;;;;;;;;;1.75;0.75;;;;;16.97;76.42;100327.00;5779716;24;45326;-93
2022/11/09 11:42:14;;;;;;;;;2.25;2.00;;;;;17.86;75.88;100447.13;5838806;24;45319;-94
2022/11/09 11:45:08;;;;;;;;;2.00;0.75;;;;;18.09;75.60;100440.56;5868231;24;44849;-91
2022/11/09 11:47:39;;;;;;;;;2.75;2.00;;;;;17.92;73.51;100361.28;5849223;24;47100;-91
2022/11/09 11:50:41;;;;;;;;;1.00;1.00;;;;;17.72;73.53;100287.50;5920985;23;45303;-90
2022/11/09 11:53:32;;;;;;;;;1.25;1.00;;;;;18.41;73.45;100355.88;5943757;23;45384;-93
2022/11/09 11:56:19;;;;;;;;;1.00;1.00;;;;;19.00;72.42;100400.78;5985055;23;46493;-91
2022/11/09 11:59:17;;;;;;;;;2.50;2.50;;;;;19.63;71.41;100456.03;6045229;23;45360;-94
2022/11/09 12:02:02;;;;;;;;;1.00;1.00;;;;;19.25;71.07;100321.66;6168380;22;45315;-92
2022/11/09 12:04:51;;;;;;;;;1.75;1.00;;;;;19.81;70.52;100348.66;6244720;22;45378;-92
2022/11/09 12:11:41;;;;;;;;;;;;;;;;;;;;;
2022/11/09 12:14:45;;;;;;;;;1.00;0.00;;;;;22.10;69.08;100436.59;6248068;22;72176;-89
2022/11/09 12:18:03;;;;;;;;;4.50;2.25;;;;;21.98;68.08;100330.69;6254828;22;45186;-94
2022/11/09 12:21:08;;;;;;;;;2.00;0.50;;;;;22.74;68.34;100431.13;6272977;22;45423;-94
2022/11/09 12:23:51;;;;;;;;;1.50;1.50;;;;;22.26;68.15;100361.88;6285899;22;45364;-93
2022/11/09 12:26:42;;;;;;;;;2.00;2.00;;;;;22.50;69.98;100439.16;6280974;22;45221;-90
2022/11/09 12:29:49;;;;;;;;;2.00;2.00;;;;;20.79;70.79;100203.72;6280344;22;45339;-93
2022/11/09 12:32:27;;;;;;;;;0.00;0.00;;;;;20.57;70.89;100235.53;6287727;22;45275;-92
2022/11/09 12:35:13;;;;;;;;;1.00;1.00;;;;;21.48;69.56;100438.09;6258177;22;47517;-94
2022/11/09 12:38:06;;;;;;;;;0.25;0.25;;;;;20.03;70.41;100273.09;6276639;22;45329;-92
2022/11/09 12:41:04;;;;;;;;;1.00;1.00;;;;;19.73;71.47;100302.66;6254757;22;45324;-93
2022/11/09 12:43:44;;;;;;;;;2.75;1.75;;;;;19.77;71.57;100373.88;6278583;22;45421;-92
2022/11/09 12:46:12;;;;;;;;;0.75;0.75;;;;;19.64;71.39;100395.25;6284292;22;47204;-93
2022/11/09 12:48:39;;;;;;;;;1.75;0.75;;;;;19.27;71.66;100386.75;6254591;22;45930;-93
2022/11/09 12:51:07;;;;;;;;;2.25;1.75;;;;;18.43;71.46;100279.09;6252108;22;45352;-94
2022/11/09 12:53:35;;;;;;;;;0.25;0.25;;;;;18.85;71.48;100402.53;6256810;22;45387;-93
2022/11/09 12:56:18;;;;;;;;;1.50;1.00;;;;;17.47;71.83;100213.13;6257612;22;46713;-93
2022/11/09 12:58:51;;;;;;;;;1.75;1.75;;;;;17.74;71.04;100301.63;6288290;22;45367;-93